sensor_id;sensor_type;location;lat;lon;timestamp;P1;durP1;ratioP1;P2;durP2;ratioP2
25936;SDS011;13733;51.178;4.450;2023-04-03T00:01:05;11.57;;;6.47;;
25936;SDS011;13733;51.178;4.450;2023-04-03T00:03:31;9.30;;;5.65;;
25936;SDS011;13733;51.178;4.450;2023-04-03T00:05:56;9.38;;;6.20;;
25936;SDS011;13733;51.178;4.450;2023-04-03T00:08:23;10.65;;;6.47;;
25936;SDS011;13733;51.178;4.450;2023-04-03T00:10:48;11.75;;;6.35;;
25936;SDS011;13733;51.178;4.450;2023-04-03T00:13:14;9.40;;;6.40;;
25936;SDS011;13733;51.178;4.450;2023-04-03T00:15:40;9.07;;;6.43;;
25936;SDS011;13733;51.178;4.450;2023-04-03T00:18:06;10.30;;;6.25;;
25936;SDS011;13733;51.178;4.450;2023-04-03T00:20:32;11.88;;;6.95;;
25936;SDS011;13733;51.178;4.450;2023-04-03T00:22:59;10.65;;;6.53;;
25936;SDS011;13733;51.178;4.450;2023-04-03T00:25:26;12.07;;;6.13;;
25936;SDS011;13733;51.178;4.450;2023-04-03T00:27:52;9.50;;;6.00;;
25936;SDS011;13733;51.178;4.450;2023-04-03T00:30:19;12.60;;;6.30;;
25936;SDS011;13733;51.178;4.450;2023-04-03T00:32:47;10.07;;;6.25;;
25936;SDS011;13733;51.178;4.450;2023-04-03T00:35:14;10.90;;;6.50;;
25936;SDS011;13733;51.178;4.450;2023-04-03T00:37:43;10.93;;;6.75;;
25936;SDS011;13733;51.178;4.450;2023-04-03T00:40:09;12.68;;;6.22;;
25936;SDS011;13733;51.178;4.450;2023-04-03T00:42:37;9.90;;;6.72;;
25936;SDS011;13733;51.178;4.450;2023-04-03T00:47:29;9.02;;;6.55;;
25936;SDS011;13733;51.178;4.450;2023-04-03T00:49:56;11.02;;;6.70;;
25936;SDS011;13733;51.178;4.450;2023-04-03T00:52:23;7.63;;;6.53;;
25936;SDS011;13733;51.178;4.450;2023-04-03T00:54:54;9.98;;;6.05;;
25936;SDS011;13733;51.178;4.450;2023-04-03T00:57:23;10.80;;;6.50;;
25936;SDS011;13733;51.178;4.450;2023-04-03T00:59:50;11.77;;;6.80;;
25936;SDS011;13733;51.178;4.450;2023-04-03T01:02:20;11.65;;;6.88;;
25936;SDS011;13733;51.178;4.450;2023-04-03T01:04:46;11.90;;;6.78;;
25936;SDS011;13733;51.178;4.450;2023-04-03T01:07:22;12.05;;;6.53;;
25936;SDS011;13733;51.178;4.450;2023-04-03T01:09:52;9.27;;;6.90;;
25936;SDS011;13733;51.178;4.450;2023-04-03T01:12:24;8.93;;;7.00;;
25936;SDS011;13733;51.178;4.450;2023-04-03T01:14:56;10.30;;;6.13;;
25936;SDS011;13733;51.178;4.450;2023-04-03T01:17:40;9.13;;;6.10;;
25936;SDS011;13733;51.178;4.450;2023-04-03T01:25:36;10.73;;;6.60;;
25936;SDS011;13733;51.178;4.450;2023-04-03T01:28:06;9.15;;;6.47;;
25936;SDS011;13733;51.178;4.450;2023-04-03T01:30:36;8.98;;;6.60;;
25936;SDS011;13733;51.178;4.450;2023-04-03T01:33:09;9.65;;;6.15;;
25936;SDS011;13733;51.178;4.450;2023-04-03T01:35:35;13.43;;;6.82;;
25936;SDS011;13733;51.178;4.450;2023-04-03T01:38:02;8.60;;;6.65;;
25936;SDS011;13733;51.178;4.450;2023-04-03T01:40:28;11.25;;;6.07;;
25936;SDS011;13733;51.178;4.450;2023-04-03T01:42:54;11.50;;;6.05;;
25936;SDS011;13733;51.178;4.450;2023-04-03T01:45:20;8.82;;;6.55;;
25936;SDS011;13733;51.178;4.450;2023-04-03T01:47:46;9.82;;;6.13;;
25936;SDS011;13733;51.178;4.450;2023-04-03T01:50:12;9.05;;;6.45;;
25936;SDS011;13733;51.178;4.450;2023-04-03T01:52:38;9.88;;;6.28;;
25936;SDS011;13733;51.178;4.450;2023-04-03T01:55:04;15.02;;;6.47;;
25936;SDS011;13733;51.178;4.450;2023-04-03T01:57:30;10.60;;;6.70;;
25936;SDS011;13733;51.178;4.450;2023-04-03T01:59:56;11.02;;;6.00;;
25936;SDS011;13733;51.178;4.450;2023-04-03T02:02:21;10.88;;;6.60;;
25936;SDS011;13733;51.178;4.450;2023-04-03T02:04:47;8.40;;;6.80;;
25936;SDS011;13733;51.178;4.450;2023-04-03T02:07:13;8.82;;;6.47;;
25936;SDS011;13733;51.178;4.450;2023-04-03T02:09:39;12.48;;;7.00;;
25936;SDS011;13733;51.178;4.450;2023-04-03T02:12:04;10.52;;;6.32;;
25936;SDS011;13733;51.178;4.450;2023-04-03T02:14:31;9.93;;;6.50;;
25936;SDS011;13733;51.178;4.450;2023-04-03T02:16:57;15.23;;;7.13;;
25936;SDS011;13733;51.178;4.450;2023-04-03T02:19:22;11.98;;;6.68;;
25936;SDS011;13733;51.178;4.450;2023-04-03T02:21:48;10.35;;;6.90;;
25936;SDS011;13733;51.178;4.450;2023-04-03T02:24:14;11.07;;;7.40;;
25936;SDS011;13733;51.178;4.450;2023-04-03T02:26:40;10.68;;;6.57;;
25936;SDS011;13733;51.178;4.450;2023-04-03T02:29:06;10.75;;;6.45;;
25936;SDS011;13733;51.178;4.450;2023-04-03T02:31:31;15.98;;;7.72;;
25936;SDS011;13733;51.178;4.450;2023-04-03T02:33:59;8.50;;;6.32;;
25936;SDS011;13733;51.178;4.450;2023-04-03T02:36:25;12.77;;;6.70;;
25936;SDS011;13733;51.178;4.450;2023-04-03T02:38:55;9.85;;;7.07;;
25936;SDS011;13733;51.178;4.450;2023-04-03T02:41:21;11.93;;;7.22;;
25936;SDS011;13733;51.178;4.450;2023-04-03T02:43:49;9.38;;;6.85;;
25936;SDS011;13733;51.178;4.450;2023-04-03T02:46:15;8.13;;;6.38;;
25936;SDS011;13733;51.178;4.450;2023-04-03T02:48:41;12.40;;;7.30;;
25936;SDS011;13733;51.178;4.450;2023-04-03T02:51:07;9.35;;;7.28;;
25936;SDS011;13733;51.178;4.450;2023-04-03T02:53:32;11.77;;;6.88;;
25936;SDS011;13733;51.178;4.450;2023-04-03T02:56:05;13.73;;;7.00;;
25936;SDS011;13733;51.178;4.450;2023-04-03T02:58:31;10.32;;;7.05;;
25936;SDS011;13733;51.178;4.450;2023-04-03T03:00:58;11.10;;;7.10;;
25936;SDS011;13733;51.178;4.450;2023-04-03T03:03:24;9.80;;;6.50;;
25936;SDS011;13733;51.178;4.450;2023-04-03T03:05:50;10.95;;;7.18;;
25936;SDS011;13733;51.178;4.450;2023-04-03T03:08:25;13.10;;;6.70;;
25936;SDS011;13733;51.178;4.450;2023-04-03T03:10:51;12.25;;;7.43;;
25936;SDS011;13733;51.178;4.450;2023-04-03T03:13:16;8.55;;;6.00;;
25936;SDS011;13733;51.178;4.450;2023-04-03T03:15:42;11.55;;;7.07;;
25936;SDS011;13733;51.178;4.450;2023-04-03T03:18:08;12.30;;;7.20;;
25936;SDS011;13733;51.178;4.450;2023-04-03T03:20:34;12.45;;;7.03;;
25936;SDS011;13733;51.178;4.450;2023-04-03T03:22:59;12.00;;;7.38;;
25936;SDS011;13733;51.178;4.450;2023-04-03T03:25:25;14.18;;;9.43;;
25936;SDS011;13733;51.178;4.450;2023-04-03T03:27:51;15.70;;;7.45;;
25936;SDS011;13733;51.178;4.450;2023-04-03T03:30:17;13.20;;;7.78;;
25936;SDS011;13733;51.178;4.450;2023-04-03T03:32:43;12.80;;;7.70;;
25936;SDS011;13733;51.178;4.450;2023-04-03T03:35:08;10.70;;;7.38;;
25936;SDS011;13733;51.178;4.450;2023-04-03T03:37:35;9.55;;;6.97;;
25936;SDS011;13733;51.178;4.450;2023-04-03T03:40:00;8.93;;;6.85;;
25936;SDS011;13733;51.178;4.450;2023-04-03T03:42:26;11.30;;;6.97;;
25936;SDS011;13733;51.178;4.450;2023-04-03T03:44:52;9.52;;;7.15;;
25936;SDS011;13733;51.178;4.450;2023-04-03T03:47:19;12.15;;;7.50;;
25936;SDS011;13733;51.178;4.450;2023-04-03T03:49:45;10.82;;;7.35;;
25936;SDS011;13733;51.178;4.450;2023-04-03T03:52:11;10.00;;;7.10;;
25936;SDS011;13733;51.178;4.450;2023-04-03T03:54:37;12.82;;;7.88;;
25936;SDS011;13733;51.178;4.450;2023-04-03T03:57:03;9.50;;;7.00;;
25936;SDS011;13733;51.178;4.450;2023-04-03T03:59:30;13.55;;;7.20;;
25936;SDS011;13733;51.178;4.450;2023-04-03T04:01:55;13.48;;;8.05;;
25936;SDS011;13733;51.178;4.450;2023-04-03T04:04:21;12.95;;;7.60;;
25936;SDS011;13733;51.178;4.450;2023-04-03T04:06:48;13.73;;;7.25;;
25936;SDS011;13733;51.178;4.450;2023-04-03T04:09:14;10.40;;;7.60;;
25936;SDS011;13733;51.178;4.450;2023-04-03T04:11:39;10.65;;;7.35;;
25936;SDS011;13733;51.178;4.450;2023-04-03T04:14:07;13.43;;;7.57;;
25936;SDS011;13733;51.178;4.450;2023-04-03T04:16:36;14.20;;;8.10;;
25936;SDS011;13733;51.178;4.450;2023-04-03T04:19:07;20.63;;;8.05;;
25936;SDS011;13733;51.178;4.450;2023-04-03T04:21:33;14.73;;;8.13;;
25936;SDS011;13733;51.178;4.450;2023-04-03T04:23:59;11.57;;;7.45;;
25936;SDS011;13733;51.178;4.450;2023-04-03T04:26:25;11.73;;;7.97;;
25936;SDS011;13733;51.178;4.450;2023-04-03T04:28:51;12.20;;;8.02;;
25936;SDS011;13733;51.178;4.450;2023-04-03T04:31:18;14.20;;;8.65;;
25936;SDS011;13733;51.178;4.450;2023-04-03T04:33:44;11.10;;;8.48;;
25936;SDS011;13733;51.178;4.450;2023-04-03T04:36:12;16.50;;;9.13;;
25936;SDS011;13733;51.178;4.450;2023-04-03T04:38:41;15.05;;;8.23;;
25936;SDS011;13733;51.178;4.450;2023-04-03T04:41:07;18.50;;;9.43;;
25936;SDS011;13733;51.178;4.450;2023-04-03T04:43:34;15.32;;;9.38;;
25936;SDS011;13733;51.178;4.450;2023-04-03T04:46:04;15.05;;;9.80;;
25936;SDS011;13733;51.178;4.450;2023-04-03T04:48:35;19.02;;;10.02;;
25936;SDS011;13733;51.178;4.450;2023-04-03T04:51:02;13.88;;;8.93;;
25936;SDS011;13733;51.178;4.450;2023-04-03T04:53:29;15.85;;;9.52;;
25936;SDS011;13733;51.178;4.450;2023-04-03T04:55:55;12.93;;;9.20;;
25936;SDS011;13733;51.178;4.450;2023-04-03T04:58:21;18.48;;;9.45;;
25936;SDS011;13733;51.178;4.450;2023-04-03T05:00:47;14.43;;;9.23;;
25936;SDS011;13733;51.178;4.450;2023-04-03T05:03:14;17.35;;;9.02;;
25936;SDS011;13733;51.178;4.450;2023-04-03T05:05:40;14.73;;;9.18;;
25936;SDS011;13733;51.178;4.450;2023-04-03T05:08:06;16.05;;;9.23;;
25936;SDS011;13733;51.178;4.450;2023-04-03T05:10:33;14.02;;;9.07;;
25936;SDS011;13733;51.178;4.450;2023-04-03T05:13:00;13.23;;;9.00;;
25936;SDS011;13733;51.178;4.450;2023-04-03T05:15:26;14.48;;;9.98;;
25936;SDS011;13733;51.178;4.450;2023-04-03T05:17:52;15.25;;;9.55;;
25936;SDS011;13733;51.178;4.450;2023-04-03T05:20:17;13.27;;;8.90;;
25936;SDS011;13733;51.178;4.450;2023-04-03T05:22:45;12.80;;;8.95;;
25936;SDS011;13733;51.178;4.450;2023-04-03T05:25:11;15.43;;;9.70;;
25936;SDS011;13733;51.178;4.450;2023-04-03T05:27:40;17.85;;;10.02;;
25936;SDS011;13733;51.178;4.450;2023-04-03T05:30:07;15.90;;;9.63;;
25936;SDS011;13733;51.178;4.450;2023-04-03T05:32:35;18.08;;;9.45;;
25936;SDS011;13733;51.178;4.450;2023-04-03T05:37:42;15.50;;;10.57;;
25936;SDS011;13733;51.178;4.450;2023-04-03T05:40:08;14.52;;;9.32;;
25936;SDS011;13733;51.178;4.450;2023-04-03T05:42:36;15.57;;;9.00;;
25936;SDS011;13733;51.178;4.450;2023-04-03T05:45:02;14.07;;;9.98;;
25936;SDS011;13733;51.178;4.450;2023-04-03T05:47:28;14.93;;;10.05;;
25936;SDS011;13733;51.178;4.450;2023-04-03T05:49:54;15.05;;;9.85;;
25936;SDS011;13733;51.178;4.450;2023-04-03T05:52:25;19.73;;;9.98;;
25936;SDS011;13733;51.178;4.450;2023-04-03T05:54:53;12.65;;;8.77;;
25936;SDS011;13733;51.178;4.450;2023-04-03T05:59:50;11.73;;;8.60;;
25936;SDS011;13733;51.178;4.450;2023-04-03T06:02:17;13.85;;;9.02;;
25936;SDS011;13733;51.178;4.450;2023-04-03T06:04:46;11.07;;;8.55;;
25936;SDS011;13733;51.178;4.450;2023-04-03T06:07:13;17.00;;;9.00;;
25936;SDS011;13733;51.178;4.450;2023-04-03T06:09:41;17.02;;;9.32;;
25936;SDS011;13733;51.178;4.450;2023-04-03T06:12:07;14.43;;;9.05;;
25936;SDS011;13733;51.178;4.450;2023-04-03T06:14:33;14.10;;;8.55;;
25936;SDS011;13733;51.178;4.450;2023-04-03T06:17:00;12.93;;;8.93;;
25936;SDS011;13733;51.178;4.450;2023-04-03T06:19:26;12.73;;;8.40;;
25936;SDS011;13733;51.178;4.450;2023-04-03T06:21:55;11.57;;;8.63;;
25936;SDS011;13733;51.178;4.450;2023-04-03T06:24:23;13.13;;;8.90;;
25936;SDS011;13733;51.178;4.450;2023-04-03T06:26:50;12.35;;;8.65;;
25936;SDS011;13733;51.178;4.450;2023-04-03T06:29:17;16.75;;;8.63;;
25936;SDS011;13733;51.178;4.450;2023-04-03T06:31:44;15.88;;;8.75;;
25936;SDS011;13733;51.178;4.450;2023-04-03T06:34:10;13.52;;;8.68;;
25936;SDS011;13733;51.178;4.450;2023-04-03T06:36:36;10.18;;;7.60;;
25936;SDS011;13733;51.178;4.450;2023-04-03T06:39:02;14.52;;;7.65;;
25936;SDS011;13733;51.178;4.450;2023-04-03T06:41:28;10.10;;;6.97;;
25936;SDS011;13733;51.178;4.450;2023-04-03T06:43:54;15.23;;;7.10;;
25936;SDS011;13733;51.178;4.450;2023-04-03T06:46:22;12.45;;;7.30;;
25936;SDS011;13733;51.178;4.450;2023-04-03T06:48:49;14.43;;;6.95;;
25936;SDS011;13733;51.178;4.450;2023-04-03T06:51:25;12.82;;;7.45;;
25936;SDS011;13733;51.178;4.450;2023-04-03T06:53:53;10.98;;;6.32;;
25936;SDS011;13733;51.178;4.450;2023-04-03T06:56:20;10.07;;;6.40;;
25936;SDS011;13733;51.178;4.450;2023-04-03T06:58:47;10.85;;;5.85;;
25936;SDS011;13733;51.178;4.450;2023-04-03T07:01:14;11.60;;;6.10;;
25936;SDS011;13733;51.178;4.450;2023-04-03T07:03:41;11.25;;;6.20;;
25936;SDS011;13733;51.178;4.450;2023-04-03T07:06:08;10.88;;;5.78;;
25936;SDS011;13733;51.178;4.450;2023-04-03T07:08:36;11.18;;;5.80;;
25936;SDS011;13733;51.178;4.450;2023-04-03T07:11:03;11.10;;;5.53;;
25936;SDS011;13733;51.178;4.450;2023-04-03T07:13:30;13.05;;;6.05;;
25936;SDS011;13733;51.178;4.450;2023-04-03T07:15:56;11.45;;;6.43;;
25936;SDS011;13733;51.178;4.450;2023-04-03T07:18:22;9.77;;;5.50;;
25936;SDS011;13733;51.178;4.450;2023-04-03T07:20:48;11.52;;;5.63;;
25936;SDS011;13733;51.178;4.450;2023-04-03T07:23:14;10.15;;;5.25;;
25936;SDS011;13733;51.178;4.450;2023-04-03T07:25:43;11.90;;;4.90;;
25936;SDS011;13733;51.178;4.450;2023-04-03T07:28:10;8.57;;;4.35;;
25936;SDS011;13733;51.178;4.450;2023-04-03T07:30:41;10.68;;;4.60;;
25936;SDS011;13733;51.178;4.450;2023-04-03T07:33:08;9.05;;;4.63;;
25936;SDS011;13733;51.178;4.450;2023-04-03T07:35:34;9.05;;;4.63;;
25936;SDS011;13733;51.178;4.450;2023-04-03T07:38:00;10.50;;;4.35;;
25936;SDS011;13733;51.178;4.450;2023-04-03T07:40:26;10.88;;;4.45;;
25936;SDS011;13733;51.178;4.450;2023-04-03T07:42:52;8.57;;;3.95;;
25936;SDS011;13733;51.178;4.450;2023-04-03T07:45:17;9.20;;;4.35;;
25936;SDS011;13733;51.178;4.450;2023-04-03T07:47:44;6.93;;;4.28;;
25936;SDS011;13733;51.178;4.450;2023-04-03T07:50:10;10.55;;;4.63;;
25936;SDS011;13733;51.178;4.450;2023-04-03T07:52:35;9.45;;;4.22;;
25936;SDS011;13733;51.178;4.450;2023-04-03T07:55:01;8.63;;;3.92;;
25936;SDS011;13733;51.178;4.450;2023-04-03T07:57:27;10.90;;;4.10;;
25936;SDS011;13733;51.178;4.450;2023-04-03T07:59:52;6.10;;;3.75;;
25936;SDS011;13733;51.178;4.450;2023-04-03T08:02:18;10.75;;;4.10;;
25936;SDS011;13733;51.178;4.450;2023-04-03T08:04:45;5.07;;;3.10;;
25936;SDS011;13733;51.178;4.450;2023-04-03T08:07:11;8.18;;;3.67;;
25936;SDS011;13733;51.178;4.450;2023-04-03T08:09:37;9.63;;;3.88;;
25936;SDS011;13733;51.178;4.450;2023-04-03T08:12:02;9.93;;;3.78;;
25936;SDS011;13733;51.178;4.450;2023-04-03T08:14:30;7.03;;;3.50;;
25936;SDS011;13733;51.178;4.450;2023-04-03T08:16:59;8.13;;;3.60;;
25936;SDS011;13733;51.178;4.450;2023-04-03T08:19:26;7.03;;;3.40;;
25936;SDS011;13733;51.178;4.450;2023-04-03T08:21:52;9.98;;;3.85;;
25936;SDS011;13733;51.178;4.450;2023-04-03T08:24:19;9.32;;;3.25;;
25936;SDS011;13733;51.178;4.450;2023-04-03T08:26:45;8.98;;;3.53;;
25936;SDS011;13733;51.178;4.450;2023-04-03T08:29:10;7.22;;;3.63;;
25936;SDS011;13733;51.178;4.450;2023-04-03T08:31:36;10.13;;;3.92;;
25936;SDS011;13733;51.178;4.450;2023-04-03T08:34:02;11.32;;;3.80;;
25936;SDS011;13733;51.178;4.450;2023-04-03T08:36:29;7.53;;;3.58;;
25936;SDS011;13733;51.178;4.450;2023-04-03T08:38:55;7.97;;;3.53;;
25936;SDS011;13733;51.178;4.450;2023-04-03T08:44:02;7.07;;;3.00;;
25936;SDS011;13733;51.178;4.450;2023-04-03T08:49:40;5.47;;;2.72;;
25936;SDS011;13733;51.178;4.450;2023-04-03T08:53:01;5.82;;;2.80;;
25936;SDS011;13733;51.178;4.450;2023-04-03T08:55:22;5.88;;;2.78;;
25936;SDS011;13733;51.178;4.450;2023-04-03T08:58:00;7.03;;;3.22;;
25936;SDS011;13733;51.178;4.450;2023-04-03T09:03:28;5.85;;;2.30;;
25936;SDS011;13733;51.178;4.450;2023-04-03T09:06:11;4.97;;;2.22;;
25936;SDS011;13733;51.178;4.450;2023-04-03T09:11:24;8.70;;;2.55;;
25936;SDS011;13733;51.178;4.450;2023-04-03T09:13:57;5.63;;;2.50;;
25936;SDS011;13733;51.178;4.450;2023-04-03T09:19:17;12.02;;;3.03;;
25936;SDS011;13733;51.178;4.450;2023-04-03T09:21:57;7.38;;;2.80;;
25936;SDS011;13733;51.178;4.450;2023-04-03T09:24:32;5.80;;;2.88;;
25936;SDS011;13733;51.178;4.450;2023-04-03T09:27:01;8.77;;;2.20;;
25936;SDS011;13733;51.178;4.450;2023-04-03T09:29:31;4.68;;;2.10;;
25936;SDS011;13733;51.178;4.450;2023-04-03T09:32:15;6.28;;;2.15;;
25936;SDS011;13733;51.178;4.450;2023-04-03T09:34:43;5.40;;;2.50;;
25936;SDS011;13733;51.178;4.450;2023-04-03T09:37:09;8.10;;;2.40;;
25936;SDS011;13733;51.178;4.450;2023-04-03T09:39:57;6.57;;;2.20;;
25936;SDS011;13733;51.178;4.450;2023-04-03T09:42:24;4.75;;;2.15;;
25936;SDS011;13733;51.178;4.450;2023-04-03T09:45:00;7.80;;;2.53;;
25936;SDS011;13733;51.178;4.450;2023-04-03T09:47:29;4.82;;;2.17;;
25936;SDS011;13733;51.178;4.450;2023-04-03T09:52:42;8.80;;;2.47;;
25936;SDS011;13733;51.178;4.450;2023-04-03T09:55:16;6.72;;;2.42;;
25936;SDS011;13733;51.178;4.450;2023-04-03T09:57:47;8.07;;;2.35;;
25936;SDS011;13733;51.178;4.450;2023-04-03T10:03:03;5.78;;;2.10;;
25936;SDS011;13733;51.178;4.450;2023-04-03T10:10:45;7.30;;;2.03;;
25936;SDS011;13733;51.178;4.450;2023-04-03T10:13:13;7.78;;;2.03;;
25936;SDS011;13733;51.178;4.450;2023-04-03T10:15:48;5.47;;;1.80;;
25936;SDS011;13733;51.178;4.450;2023-04-03T10:21:13;6.22;;;2.38;;
25936;SDS011;13733;51.178;4.450;2023-04-03T10:23:54;3.53;;;1.85;;
25936;SDS011;13733;51.178;4.450;2023-04-03T10:29:55;5.30;;;2.05;;
25936;SDS011;13733;51.178;4.450;2023-04-03T10:32:50;5.60;;;1.67;;
25936;SDS011;13733;51.178;4.450;2023-04-03T10:38:26;2.80;;;1.77;;
25936;SDS011;13733;51.178;4.450;2023-04-03T10:51:45;3.35;;;1.50;;
25936;SDS011;13733;51.178;4.450;2023-04-03T10:54:24;3.15;;;1.67;;
25936;SDS011;13733;51.178;4.450;2023-04-03T10:56:52;4.13;;;1.75;;
25936;SDS011;13733;51.178;4.450;2023-04-03T11:02:07;3.47;;;1.55;;
25936;SDS011;13733;51.178;4.450;2023-04-03T11:04:46;5.20;;;2.10;;
25936;SDS011;13733;51.178;4.450;2023-04-03T11:09:50;5.68;;;1.80;;
25936;SDS011;13733;51.178;4.450;2023-04-03T11:12:23;3.53;;;1.70;;
25936;SDS011;13733;51.178;4.450;2023-04-03T11:14:54;4.40;;;1.67;;
25936;SDS011;13733;51.178;4.450;2023-04-03T11:22:26;1.92;;;1.10;;
25936;SDS011;13733;51.178;4.450;2023-04-03T11:27:35;3.63;;;1.42;;
25936;SDS011;13733;51.178;4.450;2023-04-03T11:30:19;3.70;;;1.75;;
25936;SDS011;13733;51.178;4.450;2023-04-03T11:33:10;3.78;;;1.50;;
25936;SDS011;13733;51.178;4.450;2023-04-03T11:35:50;5.00;;;1.77;;
25936;SDS011;13733;51.178;4.450;2023-04-03T11:38:23;2.30;;;1.30;;
25936;SDS011;13733;51.178;4.450;2023-04-03T11:40:54;2.83;;;1.40;;
25936;SDS011;13733;51.178;4.450;2023-04-03T11:45:56;2.60;;;1.30;;
25936;SDS011;13733;51.178;4.450;2023-04-03T11:51:00;6.38;;;1.00;;
25936;SDS011;13733;51.178;4.450;2023-04-03T11:53:36;1.70;;;0.95;;
25936;SDS011;13733;51.178;4.450;2023-04-03T12:04:21;2.78;;;1.00;;
25936;SDS011;13733;51.178;4.450;2023-04-03T12:06:49;2.95;;;1.42;;
25936;SDS011;13733;51.178;4.450;2023-04-03T12:14:48;3.53;;;1.20;;
25936;SDS011;13733;51.178;4.450;2023-04-03T12:17:26;5.05;;;1.30;;
25936;SDS011;13733;51.178;4.450;2023-04-03T12:19:54;3.33;;;1.13;;
25936;SDS011;13733;51.178;4.450;2023-04-03T12:22:20;2.75;;;1.30;;
25936;SDS011;13733;51.178;4.450;2023-04-03T12:24:55;2.08;;;1.30;;
25936;SDS011;13733;51.178;4.450;2023-04-03T12:27:22;3.42;;;1.60;;
25936;SDS011;13733;51.178;4.450;2023-04-03T12:35:44;3.05;;;1.50;;
25936;SDS011;13733;51.178;4.450;2023-04-03T12:44:09;2.47;;;1.45;;
25936;SDS011;13733;51.178;4.450;2023-04-03T12:46:50;2.67;;;1.20;;
25936;SDS011;13733;51.178;4.450;2023-04-03T12:51:58;1.42;;;1.10;;
25936;SDS011;13733;51.178;4.450;2023-04-03T12:54:31;1.23;;;1.08;;
25936;SDS011;13733;51.178;4.450;2023-04-03T13:02:52;2.60;;;1.40;;
25936;SDS011;13733;51.178;4.450;2023-04-03T13:05:19;1.95;;;1.60;;
25936;SDS011;13733;51.178;4.450;2023-04-03T13:07:49;2.35;;;1.30;;
25936;SDS011;13733;51.178;4.450;2023-04-03T13:10:22;3.00;;;1.30;;
25936;SDS011;13733;51.178;4.450;2023-04-03T13:17:47;2.72;;;1.42;;
25936;SDS011;13733;51.178;4.450;2023-04-03T13:20:18;1.95;;;1.38;;
25936;SDS011;13733;51.178;4.450;2023-04-03T13:23:05;4.45;;;1.67;;
25936;SDS011;13733;51.178;4.450;2023-04-03T13:25:35;2.08;;;1.33;;
25936;SDS011;13733;51.178;4.450;2023-04-03T13:28:04;1.73;;;1.50;;
25936;SDS011;13733;51.178;4.450;2023-04-03T13:30:32;2.03;;;1.40;;
25936;SDS011;13733;51.178;4.450;2023-04-03T13:33:02;4.10;;;1.80;;
25936;SDS011;13733;51.178;4.450;2023-04-03T13:35:32;3.05;;;1.35;;
25936;SDS011;13733;51.178;4.450;2023-04-03T13:38:05;3.05;;;1.50;;
25936;SDS011;13733;51.178;4.450;2023-04-03T13:40:54;1.65;;;1.30;;
25936;SDS011;13733;51.178;4.450;2023-04-03T13:43:26;6.85;;;1.70;;
25936;SDS011;13733;51.178;4.450;2023-04-03T13:48:20;3.20;;;1.63;;
25936;SDS011;13733;51.178;4.450;2023-04-03T13:51:04;4.03;;;1.45;;
25936;SDS011;13733;51.178;4.450;2023-04-03T13:53:43;3.53;;;1.40;;
25936;SDS011;13733;51.178;4.450;2023-04-03T13:56:19;5.85;;;1.83;;
25936;SDS011;13733;51.178;4.450;2023-04-03T13:58:58;2.97;;;1.87;;
25936;SDS011;13733;51.178;4.450;2023-04-03T14:06:43;5.15;;;1.63;;
25936;SDS011;13733;51.178;4.450;2023-04-03T14:09:10;3.47;;;1.50;;
25936;SDS011;13733;51.178;4.450;2023-04-03T14:11:36;2.00;;;1.50;;
25936;SDS011;13733;51.178;4.450;2023-04-03T14:14:05;3.70;;;1.45;;
25936;SDS011;13733;51.178;4.450;2023-04-03T14:16:37;6.50;;;1.63;;
25936;SDS011;13733;51.178;4.450;2023-04-03T14:19:06;5.35;;;1.85;;
25936;SDS011;13733;51.178;4.450;2023-04-03T14:21:32;2.17;;;1.38;;
25936;SDS011;13733;51.178;4.450;2023-04-03T14:23:58;5.05;;;1.60;;
25936;SDS011;13733;51.178;4.450;2023-04-03T14:26:24;1.52;;;1.25;;
25936;SDS011;13733;51.178;4.450;2023-04-03T14:28:53;2.97;;;1.48;;
25936;SDS011;13733;51.178;4.450;2023-04-03T14:31:20;3.30;;;1.70;;
25936;SDS011;13733;51.178;4.450;2023-04-03T14:33:46;1.83;;;1.20;;
25936;SDS011;13733;51.178;4.450;2023-04-03T14:36:17;3.03;;;1.40;;
25936;SDS011;13733;51.178;4.450;2023-04-03T14:38:45;3.55;;;1.67;;
25936;SDS011;13733;51.178;4.450;2023-04-03T14:41:12;6.72;;;1.27;;
25936;SDS011;13733;51.178;4.450;2023-04-03T14:43:39;2.15;;;1.35;;
25936;SDS011;13733;51.178;4.450;2023-04-03T14:46:09;4.90;;;1.42;;
25936;SDS011;13733;51.178;4.450;2023-04-03T14:48:43;4.22;;;1.40;;
25936;SDS011;13733;51.178;4.450;2023-04-03T14:51:13;5.07;;;1.50;;
25936;SDS011;13733;51.178;4.450;2023-04-03T14:53:40;2.63;;;1.50;;
25936;SDS011;13733;51.178;4.450;2023-04-03T14:56:12;4.43;;;1.40;;
25936;SDS011;13733;51.178;4.450;2023-04-03T14:58:41;4.35;;;1.42;;
25936;SDS011;13733;51.178;4.450;2023-04-03T15:01:09;4.03;;;1.55;;
25936;SDS011;13733;51.178;4.450;2023-04-03T15:03:39;3.92;;;1.58;;
25936;SDS011;13733;51.178;4.450;2023-04-03T15:06:05;3.95;;;1.50;;
25936;SDS011;13733;51.178;4.450;2023-04-03T15:08:30;3.55;;;1.80;;
25936;SDS011;13733;51.178;4.450;2023-04-03T15:10:56;2.10;;;1.40;;
25936;SDS011;13733;51.178;4.450;2023-04-03T15:13:23;4.25;;;1.77;;
25936;SDS011;13733;51.178;4.450;2023-04-03T15:15:50;2.22;;;1.63;;
25936;SDS011;13733;51.178;4.450;2023-04-03T15:18:18;2.58;;;1.40;;
25936;SDS011;13733;51.178;4.450;2023-04-03T15:20:48;2.85;;;1.67;;
25936;SDS011;13733;51.178;4.450;2023-04-03T15:23:14;4.82;;;1.65;;
25936;SDS011;13733;51.178;4.450;2023-04-03T15:25:42;4.55;;;1.40;;
25936;SDS011;13733;51.178;4.450;2023-04-03T15:28:09;2.35;;;1.60;;
25936;SDS011;13733;51.178;4.450;2023-04-03T15:30:42;6.22;;;1.63;;
25936;SDS011;13733;51.178;4.450;2023-04-03T15:33:08;7.25;;;1.73;;
25936;SDS011;13733;51.178;4.450;2023-04-03T15:35:34;5.93;;;1.65;;
25936;SDS011;13733;51.178;4.450;2023-04-03T15:38:00;3.60;;;1.90;;
25936;SDS011;13733;51.178;4.450;2023-04-03T15:40:25;5.13;;;1.45;;
25936;SDS011;13733;51.178;4.450;2023-04-03T15:42:51;4.88;;;1.90;;
25936;SDS011;13733;51.178;4.450;2023-04-03T15:45:17;4.97;;;1.75;;
25936;SDS011;13733;51.178;4.450;2023-04-03T15:47:42;6.25;;;1.60;;
25936;SDS011;13733;51.178;4.450;2023-04-03T15:50:08;7.45;;;2.13;;
25936;SDS011;13733;51.178;4.450;2023-04-03T15:52:34;3.40;;;1.75;;
25936;SDS011;13733;51.178;4.450;2023-04-03T15:55:00;4.47;;;1.80;;
25936;SDS011;13733;51.178;4.450;2023-04-03T15:57:26;5.85;;;2.00;;
25936;SDS011;13733;51.178;4.450;2023-04-03T15:59:52;5.85;;;1.65;;
25936;SDS011;13733;51.178;4.450;2023-04-03T16:02:18;3.83;;;1.63;;
25936;SDS011;13733;51.178;4.450;2023-04-03T16:04:44;4.32;;;2.10;;
25936;SDS011;13733;51.178;4.450;2023-04-03T16:07:10;3.42;;;1.70;;
25936;SDS011;13733;51.178;4.450;2023-04-03T16:09:36;3.65;;;1.90;;
25936;SDS011;13733;51.178;4.450;2023-04-03T16:12:02;4.25;;;2.17;;
25936;SDS011;13733;51.178;4.450;2023-04-03T16:14:28;4.93;;;1.60;;
25936;SDS011;13733;51.178;4.450;2023-04-03T16:16:55;6.78;;;2.00;;
25936;SDS011;13733;51.178;4.450;2023-04-03T16:19:22;3.22;;;1.70;;
25936;SDS011;13733;51.178;4.450;2023-04-03T16:21:48;3.45;;;1.77;;
25936;SDS011;13733;51.178;4.450;2023-04-03T16:24:13;4.47;;;1.90;;
25936;SDS011;13733;51.178;4.450;2023-04-03T16:26:39;6.85;;;1.80;;
25936;SDS011;13733;51.178;4.450;2023-04-03T16:29:05;2.88;;;1.80;;
25936;SDS011;13733;51.178;4.450;2023-04-03T16:31:32;3.17;;;1.95;;
25936;SDS011;13733;51.178;4.450;2023-04-03T16:33:58;5.63;;;2.00;;
25936;SDS011;13733;51.178;4.450;2023-04-03T16:36:25;2.50;;;1.75;;
25936;SDS011;13733;51.178;4.450;2023-04-03T16:38:51;5.75;;;1.80;;
25936;SDS011;13733;51.178;4.450;2023-04-03T16:41:17;3.78;;;1.92;;
25936;SDS011;13733;51.178;4.450;2023-04-03T16:43:43;3.10;;;1.75;;
25936;SDS011;13733;51.178;4.450;2023-04-03T16:46:08;4.95;;;1.83;;
25936;SDS011;13733;51.178;4.450;2023-04-03T16:48:34;3.15;;;2.00;;
25936;SDS011;13733;51.178;4.450;2023-04-03T16:51:00;3.53;;;1.70;;
25936;SDS011;13733;51.178;4.450;2023-04-03T16:53:26;3.88;;;2.00;;